Portada
METAR-TAF:

METAR-TAF

Aeroports :

Pope Air Force Base

Fayetteville-Pope, Carolina del Nord, Estats Units d'Amèrica

latitud: 35-10N, longitud: 079-02W, altitud: 61 m

Observació

L'informe es va fer fa 40 minuts, a les 21:56 UTC
Vent 14 kt del Nord-Oest
Temperatura 22°C
Humitat 19%
Pressió 1010 hPa
Visibilitat: 16.1 km
Cel clar

METAR: KPOB 032156Z AUTO 31014KT 10SM CLR 22/M03 A2983 RMK AO2 PK WND 32026/19 SLP104 T02241031 $

Hora: 18:36 (22:36 UTC)

Pronòstic

L'informe es va fer fa 3 hores i 56 minuts, a les 18:40 UTC
Pronòstic vàlid del 03 a les 18 UTC al 04 a les 23 UTC
Vent 12 kt del Nord amb ràfegues de 18 kt
Visibilitat 10 km o més
Cel clar
Evolucionant progressivament
l' 03 a les 22 UTC al 03 a les 23 UTC
Vent 9 kt del Nord/Nord-Est
Visibilitat 10 km o més
Cel clar

TAF: KPOB 031840Z 0318/0423 36012G18KT 9999 SKC QNH2985INS BECMG 0322/0323 02009KT 9999 SKC QNH2985INS TX21/0320Z TN08/0411Z

Observacions i pronòstics meteorològics de més de 4000 aeroports (METAR i TAF).

Les estacions disponibles són els punts grocs i vermells al mapa.

Posi el ratolí al punt desitjat per veure el nom de l'estació.

Feu clic per veure les observacions i els pronòstics meteorològics.

Per canviar el mapa: feu clic els botons verds amb una creu de color negre per apropar; al botó verd amb un guió per allunyar la imatge; o en les fletxes verdes per a mapes adjacents.


METAR-TAF: